createdAt,value
2023-06-20T00:00:58.795Z,25.98
2023-06-20T00:03:44.326Z,25.93
2023-06-20T00:06:11.458Z,25.92
2023-06-20T00:08:38.295Z,25.86
2023-06-20T00:11:05.461Z,25.84
2023-06-20T00:13:32.319Z,25.81
2023-06-20T00:15:59.383Z,25.81
2023-06-20T00:18:26.395Z,25.76
2023-06-20T00:20:55.156Z,25.72
2023-06-20T00:23:22.746Z,25.66
2023-06-20T00:25:49.989Z,25.51
2023-06-20T00:28:19.798Z,25.44
2023-06-20T00:30:46.927Z,25.33
2023-06-20T00:33:14.012Z,25.26
2023-06-20T00:35:41.146Z,25.19
2023-06-20T00:38:07.938Z,25.24
2023-06-20T00:40:35.110Z,25.28
2023-06-20T00:43:01.952Z,25.27
2023-06-20T00:45:36.433Z,25.34
2023-06-20T00:48:07.332Z,25.30
2023-06-20T00:50:35.816Z,25.13
2023-06-20T00:53:07.026Z,25.05
2023-06-20T00:55:35.317Z,24.93
2023-06-20T00:58:03.320Z,24.98
2023-06-20T01:00:33.843Z,24.99
2023-06-20T01:03:03.254Z,24.96
2023-06-20T01:05:30.573Z,24.87
2023-06-20T01:08:22.514Z,24.84
2023-06-20T01:11:08.472Z,24.88
2023-06-20T01:13:38.518Z,24.84
2023-06-20T01:16:18.360Z,24.83
2023-06-20T01:18:48.056Z,24.84
2023-06-20T01:21:18.656Z,24.70
2023-06-20T01:24:05.133Z,24.71
2023-06-20T01:26:38.988Z,24.66
2023-06-20T01:29:21.658Z,24.66
2023-06-20T01:31:54.558Z,24.47
2023-06-20T01:34:24.131Z,24.53
2023-06-20T01:36:54.945Z,24.44
2023-06-20T01:39:37.311Z,24.40
2023-06-20T01:42:04.736Z,24.41
2023-06-20T01:44:32.416Z,24.31
2023-06-20T01:46:59.749Z,24.41
2023-06-20T01:49:26.917Z,24.43
2023-06-20T01:51:57.061Z,24.47
2023-06-20T01:54:29.031Z,24.33
2023-06-20T01:56:58.744Z,24.37
2023-06-20T01:59:26.798Z,24.15
2023-06-20T02:01:53.991Z,24.22
2023-06-20T02:04:20.794Z,24.26
2023-06-20T02:06:48.094Z,24.08
2023-06-20T02:09:14.994Z,24.07
2023-06-20T02:11:42.061Z,24.06
2023-06-20T02:14:08.834Z,23.99
2023-06-20T02:16:36.268Z,24.02
2023-06-20T02:19:07.428Z,23.91
2023-06-20T02:21:38.505Z,24.02
2023-06-20T02:24:08.354Z,23.91
2023-06-20T02:26:37.247Z,23.88
2023-06-20T02:29:06.385Z,23.96
2023-06-20T02:31:37.744Z,23.98
2023-06-20T02:34:06.116Z,23.93
2023-06-20T02:36:33.253Z,23.83
2023-06-20T02:39:00.031Z,23.77
2023-06-20T02:41:27.085Z,23.74
2023-06-20T02:43:53.848Z,23.74
2023-06-20T02:46:34.789Z,23.70
2023-06-20T02:49:01.735Z,23.75
2023-06-20T02:51:34.319Z,23.74
2023-06-20T02:54:17.359Z,23.71
2023-06-20T02:56:44.569Z,23.69
2023-06-20T02:59:11.430Z,23.62
2023-06-20T03:01:38.548Z,23.51
2023-06-20T03:04:05.680Z,23.57
2023-06-20T03:06:33.670Z,23.54
2023-06-20T03:09:04.196Z,23.59
2023-06-20T03:11:31.373Z,23.55
2023-06-20T03:13:58.149Z,23.54
2023-06-20T03:16:27.840Z,23.53
2023-06-20T03:18:55.356Z,23.45
2023-06-20T03:21:29.366Z,23.49
2023-06-20T03:23:56.837Z,23.37
2023-06-20T03:26:24.001Z,23.43
2023-06-20T03:28:50.762Z,23.42
2023-06-20T03:31:18.106Z,23.36
2023-06-20T03:33:44.893Z,23.29
2023-06-20T03:36:12.115Z,23.30
2023-06-20T03:38:40.949Z,23.40
2023-06-20T03:41:08.024Z,23.41
2023-06-20T03:43:34.970Z,23.30
2023-06-20T03:46:02.066Z,23.19
2023-06-20T03:48:28.836Z,23.27
2023-06-20T03:50:55.883Z,23.29
2023-06-20T03:53:22.666Z,23.37
2023-06-20T03:55:49.868Z,23.41
2023-06-20T03:58:16.708Z,23.27
2023-06-20T04:00:43.842Z,23.28
2023-06-20T04:03:10.747Z,23.31
2023-06-20T04:05:38.825Z,23.31
2023-06-20T04:08:05.615Z,23.40
2023-06-20T04:10:32.689Z,23.48
2023-06-20T04:12:59.538Z,23.46
2023-06-20T04:15:26.814Z,23.57
2023-06-20T04:17:53.889Z,23.63
2023-06-20T04:20:21.179Z,23.64
2023-06-20T04:22:47.985Z,23.62
2023-06-20T04:25:15.417Z,23.58
2023-06-20T04:27:42.532Z,23.56
2023-06-20T04:30:09.877Z,23.59
2023-06-20T04:32:38.150Z,23.64
2023-06-20T04:35:05.782Z,23.65
2023-06-20T04:37:32.571Z,23.71
2023-06-20T04:39:59.690Z,23.73
2023-06-20T04:42:26.511Z,23.77
2023-06-20T04:44:53.662Z,23.88
2023-06-20T04:47:20.535Z,23.91
2023-06-20T04:49:47.685Z,23.94
2023-06-20T04:52:14.493Z,23.97
2023-06-20T04:54:41.618Z,24.00
2023-06-20T04:57:08.441Z,24.06
2023-06-20T04:59:39.490Z,24.11
2023-06-20T05:02:07.193Z,24.13
2023-06-20T05:04:34.479Z,24.18
2023-06-20T05:07:03.368Z,24.25
2023-06-20T05:09:30.483Z,24.33
2023-06-20T05:12:00.421Z,24.34
2023-06-20T05:14:31.523Z,24.41
2023-06-20T05:16:58.351Z,24.47
2023-06-20T05:19:25.473Z,24.51
2023-06-20T05:21:52.291Z,24.57
2023-06-20T05:24:19.436Z,24.61
2023-06-20T05:26:46.264Z,24.66
2023-06-20T05:29:13.421Z,24.73
2023-06-20T05:31:41.356Z,24.79
2023-06-20T05:34:08.918Z,24.84
2023-06-20T05:36:35.681Z,24.92
2023-06-20T05:39:02.975Z,24.96
2023-06-20T05:41:29.763Z,25.02
2023-06-20T05:43:56.884Z,25.10
2023-06-20T05:46:23.724Z,25.13
2023-06-20T05:48:50.812Z,25.24
2023-06-20T05:51:17.636Z,25.29
2023-06-20T05:53:44.943Z,25.33
2023-06-20T05:56:12.052Z,25.39
2023-06-20T05:58:39.187Z,25.46
2023-06-20T06:01:05.945Z,25.51
2023-06-20T06:03:36.295Z,25.59
2023-06-20T06:06:04.790Z,25.71
2023-06-20T06:08:34.894Z,25.77
2023-06-20T06:11:01.767Z,25.83
2023-06-20T06:13:29.295Z,25.89
2023-06-20T06:16:00.736Z,25.97
2023-06-20T06:18:28.610Z,26.09
2023-06-20T06:20:55.438Z,26.16
2023-06-20T06:23:22.524Z,26.26
2023-06-20T06:25:49.350Z,26.35
2023-06-20T06:28:16.630Z,26.44
2023-06-20T06:30:43.435Z,26.52
2023-06-20T06:33:11.146Z,26.62
2023-06-20T06:35:38.014Z,26.66
2023-06-20T06:38:05.274Z,26.76
2023-06-20T06:40:32.651Z,26.86
2023-06-20T06:43:00.225Z,26.95
2023-06-20T06:45:27.389Z,27.03
2023-06-20T06:47:56.055Z,27.16
2023-06-20T06:50:22.947Z,27.25
2023-06-20T06:52:50.172Z,27.36
2023-06-20T06:55:17.105Z,27.44
2023-06-20T06:57:44.196Z,27.54
2023-06-20T07:00:12.507Z,27.64
2023-06-20T07:02:42.505Z,27.74
2023-06-20T07:05:10.462Z,27.80
2023-06-20T07:07:37.605Z,27.91
2023-06-20T07:10:04.914Z,27.98
2023-06-20T07:12:32.309Z,28.04
2023-06-20T07:14:59.161Z,28.12
2023-06-20T07:17:26.999Z,28.25
2023-06-20T07:19:54.097Z,28.35
2023-06-20T07:22:21.248Z,28.37
2023-06-20T07:24:51.934Z,28.43
2023-06-20T07:27:20.475Z,28.49
2023-06-20T07:29:47.286Z,28.62
2023-06-20T07:32:15.774Z,28.70
2023-06-20T07:34:42.834Z,28.78
2023-06-20T07:37:10.045Z,28.85
2023-06-20T07:39:41.314Z,28.97
2023-06-20T07:42:08.951Z,29.08
2023-06-20T07:44:35.720Z,29.11
2023-06-20T07:47:02.904Z,29.22
2023-06-20T07:49:29.741Z,29.35
2023-06-20T07:51:57.000Z,29.47
2023-06-20T07:54:23.926Z,29.53
2023-06-20T07:56:51.103Z,29.59
2023-06-20T07:59:17.971Z,29.69
2023-06-20T08:01:45.286Z,29.75
2023-06-20T08:04:12.169Z,29.87
2023-06-20T08:06:39.391Z,30.03
2023-06-20T08:09:06.599Z,30.08
2023-06-20T08:11:35.684Z,30.18
2023-06-20T08:14:02.732Z,30.28
2023-06-20T08:16:30.030Z,30.36
2023-06-20T08:18:56.940Z,30.49
2023-06-20T08:21:24.040Z,30.57
2023-06-20T08:23:50.887Z,30.74
2023-06-20T08:26:18.071Z,30.80
2023-06-20T08:28:44.912Z,30.85
2023-06-20T08:31:12.131Z,30.96
2023-06-20T08:33:39.031Z,31.03
2023-06-20T08:36:06.250Z,31.10
2023-06-20T08:38:33.290Z,31.19
2023-06-20T08:41:00.437Z,31.32
2023-06-20T08:43:30.643Z,31.42
2023-06-20T08:45:58.065Z,31.47
2023-06-20T08:48:24.983Z,31.53
2023-06-20T08:50:52.411Z,31.60
2023-06-20T08:53:22.682Z,31.70
2023-06-20T08:55:51.361Z,31.77
2023-06-20T08:58:18.123Z,31.84
2023-06-20T09:00:47.173Z,31.95
2023-06-20T09:03:14.365Z,32.07
2023-06-20T09:05:46.972Z,32.09
2023-06-20T09:08:15.035Z,32.17
2023-06-20T09:10:43.045Z,32.25
2023-06-20T09:13:11.773Z,32.31
2023-06-20T09:15:39.478Z,32.44
2023-06-20T09:18:09.096Z,32.54
2023-06-20T09:20:36.562Z,32.58
2023-06-20T09:23:03.543Z,32.61
2023-06-20T09:25:31.789Z,32.70
2023-06-20T09:27:59.120Z,32.82
2023-06-20T09:30:31.576Z,32.87
2023-06-20T09:33:03.139Z,32.96
2023-06-20T09:35:31.122Z,33.04
2023-06-20T09:37:57.919Z,33.10
2023-06-20T09:40:25.404Z,33.20
2023-06-20T09:42:56.983Z,33.26
2023-06-20T09:45:24.173Z,33.36
2023-06-20T09:47:51.165Z,33.44
2023-06-20T09:50:20.075Z,33.55
2023-06-20T09:52:47.970Z,33.62
2023-06-20T09:55:16.076Z,33.69
2023-06-20T09:57:45.066Z,33.77
2023-06-20T10:00:16.255Z,33.86
2023-06-20T10:02:45.997Z,33.97
2023-06-20T10:05:17.391Z,34.04
2023-06-20T10:07:45.485Z,34.15
2023-06-20T10:10:13.573Z,34.19
2023-06-20T10:12:41.127Z,34.30
2023-06-20T10:15:09.135Z,34.37
2023-06-20T10:17:40.524Z,34.44
2023-06-20T10:20:09.120Z,34.50
2023-06-20T10:22:45.188Z,34.61
2023-06-20T10:25:16.267Z,34.67
2023-06-20T10:27:55.735Z,34.73
2023-06-20T10:30:47.742Z,34.81
2023-06-20T10:33:17.645Z,34.87
2023-06-20T10:35:49.517Z,34.91
2023-06-20T10:38:16.380Z,34.99
2023-06-20T10:40:44.244Z,35.08
2023-06-20T10:43:18.418Z,35.16
2023-06-20T10:45:58.384Z,35.24
2023-06-20T10:48:25.601Z,35.29
2023-06-20T10:50:55.584Z,35.36
2023-06-20T10:53:22.411Z,35.40
2023-06-20T10:55:49.802Z,35.45
2023-06-20T10:58:31.334Z,35.50
2023-06-20T11:00:59.506Z,35.57
2023-06-20T11:03:26.537Z,35.61
2023-06-20T11:05:55.342Z,35.66
2023-06-20T11:08:23.380Z,35.75
2023-06-20T11:10:50.459Z,35.81
2023-06-20T11:13:17.261Z,35.82
2023-06-20T11:15:44.402Z,35.94
2023-06-20T11:18:11.415Z,36.03
2023-06-20T11:20:43.070Z,36.06
2023-06-20T11:23:14.151Z,36.12
2023-06-20T11:25:45.698Z,36.14
2023-06-20T11:28:13.922Z,36.23
2023-06-20T11:30:45.782Z,36.30
2023-06-20T11:33:16.845Z,36.34
2023-06-20T11:35:56.133Z,36.40
2023-06-20T11:38:28.313Z,36.52
2023-06-20T11:41:04.840Z,36.61
2023-06-20T11:43:36.897Z,36.64
2023-06-20T11:46:04.147Z,36.73
2023-06-20T11:48:31.253Z,36.79
2023-06-20T11:50:58.418Z,36.81
2023-06-20T11:53:36.366Z,36.89
2023-06-20T11:56:13.282Z,36.96
2023-06-20T11:58:44.797Z,37.00
2023-06-20T12:01:18.918Z,37.08
2023-06-20T12:03:46.393Z,37.07
2023-06-20T12:06:36.375Z,37.18
2023-06-20T12:09:09.718Z,37.20
2023-06-20T12:11:46.482Z,37.22
2023-06-20T12:14:13.648Z,37.29
2023-06-20T12:16:40.715Z,37.30
2023-06-20T12:19:07.511Z,37.34
2023-06-20T12:21:34.649Z,37.37
2023-06-20T12:24:01.500Z,37.40
2023-06-20T12:26:28.749Z,37.45
2023-06-20T12:28:55.654Z,37.47
2023-06-20T12:31:22.769Z,37.48
2023-06-20T12:33:49.620Z,37.52
2023-06-20T12:36:17.207Z,37.53
2023-06-20T12:38:44.324Z,37.58
2023-06-20T12:41:11.778Z,37.60
2023-06-20T12:43:38.923Z,37.62
2023-06-20T12:46:06.161Z,37.65
2023-06-20T12:48:33.047Z,37.74
2023-06-20T12:51:00.153Z,37.74
2023-06-20T12:53:28.098Z,37.77
2023-06-20T12:55:59.087Z,37.79
2023-06-20T12:58:26.113Z,37.82
2023-06-20T13:00:53.356Z,37.90
2023-06-20T13:03:20.204Z,37.93
2023-06-20T13:05:47.728Z,37.97
2023-06-20T13:08:14.614Z,37.98
2023-06-20T13:10:42.768Z,37.99
2023-06-20T13:13:09.560Z,38.02
2023-06-20T13:15:36.739Z,38.03
2023-06-20T13:18:05.812Z,38.07
2023-06-20T13:20:35.743Z,38.09
2023-06-20T13:23:03.411Z,38.12
2023-06-20T13:25:31.566Z,38.13
2023-06-20T13:27:58.343Z,38.17
2023-06-20T13:30:26.289Z,38.19
2023-06-20T13:32:53.491Z,38.17
2023-06-20T13:35:23.000Z,38.19
2023-06-20T13:37:50.980Z,38.16
2023-06-20T13:40:18.317Z,38.18
2023-06-20T13:42:47.033Z,38.20
2023-06-20T13:45:15.280Z,38.23
2023-06-20T13:47:42.458Z,38.24
2023-06-20T13:50:10.499Z,38.24
2023-06-20T13:52:37.775Z,38.25
2023-06-20T13:55:06.263Z,38.26
2023-06-20T13:57:33.464Z,38.28
2023-06-20T14:00:01.284Z,38.27
2023-06-20T14:02:28.575Z,38.31
2023-06-20T14:04:55.792Z,38.32
2023-06-20T14:07:24.031Z,38.33
2023-06-20T14:09:51.262Z,38.26
2023-06-20T14:12:18.230Z,38.24
2023-06-20T14:14:45.337Z,38.29
2023-06-20T14:17:12.145Z,38.21
2023-06-20T14:19:39.339Z,38.26
2023-06-20T14:22:06.307Z,38.24
2023-06-20T14:24:34.309Z,38.22
2023-06-20T14:27:01.173Z,38.20
2023-06-20T14:29:28.338Z,38.22
2023-06-20T14:31:55.303Z,38.16
2023-06-20T14:34:22.511Z,38.19
2023-06-20T14:36:49.339Z,38.21
2023-06-20T14:39:16.503Z,38.19
2023-06-20T14:41:43.429Z,38.20
2023-06-20T14:44:10.581Z,38.15
2023-06-20T14:46:37.688Z,38.15
2023-06-20T14:49:04.783Z,38.12
2023-06-20T14:51:31.591Z,38.12
2023-06-20T14:53:58.853Z,38.14
2023-06-20T14:56:25.841Z,38.14
2023-06-20T14:58:52.967Z,38.08
2023-06-20T15:01:19.800Z,38.04
2023-06-20T15:03:47.031Z,38.07
2023-06-20T15:06:13.986Z,37.97
2023-06-20T15:08:41.102Z,37.89
2023-06-20T15:11:07.881Z,37.97
2023-06-20T15:13:35.006Z,37.99
2023-06-20T15:16:01.844Z,37.99
2023-06-20T15:18:29.032Z,37.99
2023-06-20T15:20:56.032Z,38.00
2023-06-20T15:23:23.161Z,37.98
2023-06-20T15:25:50.069Z,37.95
2023-06-20T15:28:18.343Z,38.00
2023-06-20T15:30:45.216Z,37.97
2023-06-20T15:33:12.365Z,37.94
2023-06-20T15:35:42.870Z,37.98
2023-06-20T15:38:09.971Z,37.95
2023-06-20T15:40:36.751Z,37.94
2023-06-20T15:43:03.931Z,37.90
2023-06-20T15:45:33.338Z,37.82
2023-06-20T15:48:01.504Z,37.80
2023-06-20T15:50:28.624Z,37.83
2023-06-20T15:52:56.018Z,37.82
2023-06-20T15:55:22.913Z,37.80
2023-06-20T15:57:50.069Z,37.73
2023-06-20T16:00:17.358Z,37.70
2023-06-20T16:02:44.584Z,37.67
2023-06-20T16:05:11.473Z,37.68
2023-06-20T16:07:38.709Z,37.64
2023-06-20T16:10:06.062Z,37.61
2023-06-20T16:12:33.418Z,37.58
2023-06-20T16:15:00.730Z,37.58
2023-06-20T16:17:27.943Z,37.56
2023-06-20T16:19:54.899Z,37.53
2023-06-20T16:22:22.105Z,37.52
2023-06-20T16:24:49.042Z,37.48
2023-06-20T16:27:16.183Z,37.44
2023-06-20T16:29:43.036Z,37.42
2023-06-20T16:32:10.162Z,37.39
2023-06-20T16:34:37.034Z,37.38
2023-06-20T16:37:04.429Z,37.38
2023-06-20T16:39:31.406Z,37.38
2023-06-20T16:41:58.510Z,37.34
2023-06-20T16:44:25.338Z,37.34
2023-06-20T16:46:52.531Z,37.30
2023-06-20T16:49:19.379Z,37.27
2023-06-20T16:51:46.507Z,37.24
2023-06-20T16:54:13.374Z,37.22
2023-06-20T16:56:40.569Z,37.14
2023-06-20T16:59:07.446Z,37.12
2023-06-20T17:01:37.755Z,37.10
2023-06-20T17:04:06.116Z,37.08
2023-06-20T17:06:33.496Z,37.06
2023-06-20T17:09:00.446Z,37.02
2023-06-20T17:11:27.678Z,37.00
2023-06-20T17:13:54.545Z,36.98
2023-06-20T17:16:22.076Z,36.93
2023-06-20T17:18:49.180Z,36.89
2023-06-20T17:21:16.328Z,36.86
2023-06-20T17:23:43.121Z,36.83
2023-06-20T17:26:11.418Z,36.80
2023-06-20T17:28:39.715Z,36.76
2023-06-20T17:31:06.940Z,36.71
2023-06-20T17:33:33.966Z,36.64
2023-06-20T17:36:01.121Z,36.60
2023-06-20T17:38:27.999Z,36.52
2023-06-20T17:40:55.117Z,36.49
2023-06-20T17:43:22.831Z,36.48
2023-06-20T17:45:50.370Z,36.45
2023-06-20T17:48:17.236Z,36.42
2023-06-20T17:50:44.361Z,36.38
2023-06-20T17:53:11.146Z,36.33
2023-06-20T17:55:38.417Z,36.28
2023-06-20T17:58:05.302Z,36.22
2023-06-20T18:00:32.606Z,36.19
2023-06-20T18:03:00.456Z,36.14
2023-06-20T18:05:27.807Z,36.08
2023-06-20T18:07:54.634Z,36.06
2023-06-20T18:10:24.374Z,36.01
2023-06-20T18:12:52.277Z,35.98
2023-06-20T18:15:20.932Z,35.93
2023-06-20T18:17:48.059Z,35.91
2023-06-20T18:20:16.416Z,35.84
2023-06-20T18:22:44.137Z,35.79
2023-06-20T18:25:11.609Z,35.75
2023-06-20T18:27:39.655Z,35.71
2023-06-20T18:30:08.979Z,35.65
2023-06-20T18:32:35.930Z,35.59
2023-06-20T18:35:03.906Z,35.54
2023-06-20T18:37:30.789Z,35.49
2023-06-20T18:39:57.902Z,35.45
2023-06-20T18:42:24.795Z,35.39
2023-06-20T18:44:52.115Z,35.32
2023-06-20T18:47:18.934Z,35.27
2023-06-20T18:49:46.086Z,35.24
2023-06-20T18:52:12.906Z,35.17
2023-06-20T18:54:39.992Z,35.07
2023-06-20T18:57:08.447Z,35.02
2023-06-20T18:59:35.801Z,34.94
2023-06-20T19:02:02.664Z,34.89
2023-06-20T19:04:29.955Z,34.83
2023-06-20T19:06:57.560Z,34.74
2023-06-20T19:09:30.840Z,34.70
2023-06-20T19:11:59.283Z,34.70
2023-06-20T19:14:26.428Z,34.65
2023-06-20T19:16:53.369Z,34.63
2023-06-20T19:19:20.648Z,34.55
2023-06-20T19:21:47.538Z,34.48
2023-06-20T19:24:15.045Z,34.43
2023-06-20T19:26:43.931Z,34.39
2023-06-20T19:29:13.187Z,34.34
2023-06-20T19:31:45.221Z,34.24
2023-06-20T19:34:12.445Z,34.19
2023-06-20T19:36:39.595Z,34.15
2023-06-20T19:39:06.852Z,34.10
2023-06-20T19:41:33.768Z,34.04
2023-06-20T19:44:00.919Z,33.98
2023-06-20T19:46:27.795Z,33.93
2023-06-20T19:48:55.071Z,33.90
2023-06-20T19:51:21.920Z,33.84
2023-06-20T19:53:49.103Z,33.78
2023-06-20T19:56:15.932Z,33.71
2023-06-20T19:58:44.300Z,33.64
2023-06-20T20:01:11.282Z,33.61
2023-06-20T20:03:38.530Z,33.53
2023-06-20T20:06:05.436Z,33.48
2023-06-20T20:08:32.696Z,33.43
2023-06-20T20:10:59.769Z,33.37
2023-06-20T20:13:26.895Z,33.32
2023-06-20T20:15:53.742Z,33.23
2023-06-20T20:18:20.900Z,33.17
2023-06-20T20:20:47.711Z,33.11
2023-06-20T20:23:14.822Z,33.01
2023-06-20T20:25:41.705Z,32.99
2023-06-20T20:28:09.838Z,32.96
2023-06-20T20:30:36.654Z,32.85
2023-06-20T20:33:03.874Z,32.82
2023-06-20T20:35:30.696Z,32.76
2023-06-20T20:37:57.807Z,32.70
2023-06-20T20:40:26.357Z,32.64
2023-06-20T20:42:53.868Z,32.55
2023-06-20T20:45:20.739Z,32.50
2023-06-20T20:47:48.189Z,32.42
2023-06-20T20:50:15.224Z,32.38
2023-06-20T20:52:42.317Z,32.32
2023-06-20T20:55:12.152Z,32.27
2023-06-20T20:57:39.908Z,32.20
2023-06-20T21:00:11.336Z,32.16
2023-06-20T21:02:38.688Z,32.14
2023-06-20T21:05:05.590Z,32.03
2023-06-20T21:07:32.727Z,31.99
2023-06-20T21:09:59.542Z,31.97
2023-06-20T21:12:26.738Z,31.90
2023-06-20T21:14:53.622Z,31.85
2023-06-20T21:17:20.762Z,31.81
2023-06-20T21:19:47.671Z,31.67
2023-06-20T21:22:14.816Z,31.73
2023-06-20T21:24:41.813Z,31.63
2023-06-20T21:27:08.999Z,31.56
2023-06-20T21:29:35.800Z,31.51
2023-06-20T21:32:03.036Z,31.44
2023-06-20T21:34:29.847Z,31.41
2023-06-20T21:36:56.953Z,31.35
2023-06-20T21:39:23.794Z,31.27
2023-06-20T21:41:50.935Z,31.25
2023-06-20T21:44:17.727Z,31.12
2023-06-20T21:46:45.000Z,31.14
2023-06-20T21:49:11.781Z,31.04
2023-06-20T21:51:38.878Z,30.98
2023-06-20T21:54:05.861Z,30.99
2023-06-20T21:56:32.986Z,30.92
2023-06-20T21:58:59.808Z,30.89
2023-06-20T22:01:26.908Z,30.79
2023-06-20T22:03:53.765Z,30.76
2023-06-20T22:06:21.025Z,30.69
2023-06-20T22:08:47.918Z,30.67
2023-06-20T22:11:15.017Z,30.65
2023-06-20T22:13:41.833Z,30.64
2023-06-20T22:16:08.944Z,30.54
2023-06-20T22:18:35.919Z,30.50
2023-06-20T22:21:04.616Z,30.38
2023-06-20T22:23:31.491Z,30.39
2023-06-20T22:25:58.621Z,30.31
2023-06-20T22:28:25.650Z,30.23
2023-06-20T22:30:52.977Z,30.29
2023-06-20T22:33:19.834Z,30.24
2023-06-20T22:35:46.969Z,30.16
2023-06-20T22:38:16.107Z,30.11
2023-06-20T22:40:44.822Z,30.09
2023-06-20T22:43:14.874Z,29.97
2023-06-20T22:45:42.235Z,29.84
2023-06-20T22:48:09.531Z,29.91
2023-06-20T22:50:38.061Z,29.85
2023-06-20T22:53:05.350Z,29.69
2023-06-20T22:55:38.466Z,29.70
2023-06-20T22:58:05.770Z,29.69
2023-06-20T23:00:35.706Z,29.52
2023-06-20T23:03:02.727Z,29.60
2023-06-20T23:05:30.164Z,29.57
2023-06-20T23:07:58.530Z,29.46
2023-06-20T23:10:26.412Z,29.39
2023-06-20T23:12:53.542Z,29.43
2023-06-20T23:15:20.876Z,29.39
2023-06-20T23:17:47.811Z,29.29
2023-06-20T23:20:15.036Z,29.25
2023-06-20T23:22:42.033Z,29.23
2023-06-20T23:25:13.026Z,29.01
2023-06-20T23:27:40.601Z,29.02
2023-06-20T23:30:11.719Z,29.04
2023-06-20T23:32:42.217Z,28.97
2023-06-20T23:35:09.407Z,28.95
2023-06-20T23:37:39.500Z,28.81
2023-06-20T23:40:14.021Z,28.86
2023-06-20T23:42:41.312Z,28.91
2023-06-20T23:45:10.269Z,28.91
2023-06-20T23:47:37.357Z,28.81
2023-06-20T23:50:04.870Z,28.80
2023-06-20T23:52:33.552Z,28.86
2023-06-20T23:55:01.474Z,28.78
2023-06-20T23:57:31.786Z,28.69
